createdAt,value
2018-05-15T00:01:44.064Z,97.40
2018-05-15T00:04:11.640Z,97.80
2018-05-15T00:06:39.180Z,97.80
2018-05-15T00:09:07.541Z,97.40
2018-05-15T00:11:35.062Z,97.40
2018-05-15T00:14:02.612Z,97.40
2018-05-15T00:16:30.160Z,97.70
2018-05-15T00:18:58.143Z,97.90
2018-05-15T00:21:25.699Z,98.10
2018-05-15T00:23:53.245Z,98.10
2018-05-15T00:26:21.561Z,97.90
2018-05-15T00:28:49.103Z,97.90
2018-05-15T00:31:16.647Z,97.70
2018-05-15T00:33:44.227Z,97.70
2018-05-15T00:36:11.779Z,97.80
2018-05-15T00:38:39.343Z,97.70
2018-05-15T00:41:06.892Z,97.80
2018-05-15T00:43:34.451Z,97.70
2018-05-15T00:46:01.993Z,97.80
2018-05-15T00:48:29.522Z,97.80
2018-05-15T00:50:57.071Z,97.80
2018-05-15T00:53:25.386Z,97.60
2018-05-15T00:55:52.933Z,97.60
2018-05-15T00:58:20.492Z,97.80
2018-05-15T01:00:48.023Z,97.60
2018-05-15T01:03:15.581Z,97.40
2018-05-15T01:05:43.123Z,97.20
2018-05-15T01:08:10.747Z,97.30
2018-05-15T01:10:38.286Z,97.10
2018-05-15T01:13:05.836Z,97.40
2018-05-15T01:15:33.360Z,97.40
2018-05-15T01:18:00.901Z,97.60
2018-05-15T01:20:28.459Z,97.60
2018-05-15T01:22:56.003Z,97.70
2018-05-15T01:25:23.536Z,97.40
2018-05-15T01:27:51.860Z,97.70
2018-05-15T01:30:19.394Z,97.40
2018-05-15T01:32:46.968Z,97.40
2018-05-15T01:35:14.495Z,97.30
2018-05-15T01:37:42.023Z,97.40
2018-05-15T01:46:14.978Z,97.40
2018-05-15T01:48:43.300Z,97.20
2018-05-15T01:51:10.861Z,97.20
2018-05-15T01:53:38.399Z,97.30
2018-05-15T01:56:05.942Z,97.40
2018-05-15T01:58:33.487Z,97.50
2018-05-15T02:01:01.024Z,97.50
2018-05-15T02:03:28.575Z,97.50
2018-05-15T02:05:56.881Z,97.40
2018-05-15T02:08:24.432Z,97.40
2018-05-15T02:10:52.007Z,97.50
2018-05-15T02:13:19.565Z,97.40
2018-05-15T02:15:47.092Z,97.30
2018-05-15T02:18:14.656Z,97.30
2018-05-15T02:20:42.204Z,97.30
2018-05-15T02:23:10.520Z,97.80
2018-05-15T02:25:38.050Z,97.80
2018-05-15T02:28:05.592Z,97.60
2018-05-15T02:30:33.906Z,97.90
2018-05-15T02:33:01.459Z,97.90
2018-05-15T02:35:28.993Z,97.90
2018-05-15T02:37:56.583Z,97.90
2018-05-15T02:40:24.137Z,97.90
2018-05-15T02:42:51.697Z,97.80
2018-05-15T02:45:19.265Z,97.70
2018-05-15T02:47:46.796Z,97.60
2018-05-15T02:50:14.357Z,97.70
2018-05-15T02:52:41.927Z,97.70
2018-05-15T02:55:09.468Z,97.60
2018-05-15T02:57:37.010Z,97.70
2018-05-15T03:00:05.341Z,97.60
2018-05-15T03:02:32.867Z,97.80
2018-05-15T03:05:00.421Z,97.50
2018-05-15T03:07:27.943Z,97.50
2018-05-15T03:09:55.487Z,97.60
2018-05-15T03:12:23.024Z,97.80
2018-05-15T03:14:50.567Z,97.70
2018-05-15T03:17:18.092Z,97.60
2018-05-15T03:19:46.415Z,97.80
2018-05-15T03:22:13.950Z,97.80
2018-05-15T03:24:41.507Z,97.80
2018-05-15T03:27:09.405Z,97.80
2018-05-15T03:29:37.701Z,97.70
2018-05-15T03:32:05.332Z,97.70
2018-05-15T03:34:32.875Z,97.60
2018-05-15T03:37:00.429Z,97.40
2018-05-15T03:39:27.985Z,97.40
2018-05-15T03:41:55.520Z,97.30
2018-05-15T03:44:23.828Z,97.30
2018-05-15T03:46:51.347Z,97.30
2018-05-15T03:49:18.908Z,97.20
2018-05-15T03:51:47.218Z,97.30
2018-05-15T03:54:14.796Z,97.30
2018-05-15T03:56:42.473Z,97.20
2018-05-15T03:59:10.917Z,97.60
2018-05-15T04:01:50.447Z,97.50
2018-05-15T04:04:35.163Z,97.60
2018-05-15T04:07:14.766Z,97.60
2018-05-15T04:09:42.327Z,97.60
2018-05-15T04:12:09.850Z,97.70
2018-05-15T04:14:37.383Z,97.70
2018-05-15T04:17:04.913Z,97.70
2018-05-15T04:19:36.048Z,97.80
2018-05-15T04:22:03.608Z,97.90
2018-05-15T04:24:31.163Z,98.00
2018-05-15T04:27:02.240Z,98.00
2018-05-15T04:29:29.785Z,98.20
2018-05-15T04:31:57.323Z,98.20
2018-05-15T04:34:25.204Z,98.30
2018-05-15T04:36:52.735Z,98.40
2018-05-15T04:39:20.294Z,98.50
2018-05-15T04:41:48.614Z,98.40
2018-05-15T04:44:16.151Z,98.40
2018-05-15T04:46:43.701Z,98.40
2018-05-15T04:49:11.248Z,98.40
2018-05-15T04:51:38.769Z,98.50
2018-05-15T04:54:06.295Z,98.50
2018-05-15T04:56:33.849Z,98.80
2018-05-15T04:59:01.403Z,99.00
2018-05-15T05:01:28.966Z,98.80
2018-05-15T05:03:56.515Z,99.20
2018-05-15T05:06:24.051Z,99.90
2018-05-15T05:08:51.590Z,99.90
2018-05-15T05:11:19.920Z,99.90
2018-05-15T05:13:47.590Z,99.90
2018-05-15T05:16:15.158Z,99.90
2018-05-15T05:18:42.738Z,99.90
2018-05-15T05:21:11.062Z,99.60
2018-05-15T05:23:38.612Z,99.60
2018-05-15T05:26:06.177Z,99.90
2018-05-15T05:28:33.704Z,99.90
2018-05-15T05:31:01.322Z,99.90
2018-05-15T05:33:28.889Z,99.90
2018-05-15T05:35:56.464Z,99.90
2018-05-15T05:38:23.984Z,99.90
2018-05-15T05:40:51.517Z,96.50
2018-05-15T05:43:19.327Z,92.00
2018-05-15T05:45:46.867Z,93.90
2018-05-15T05:48:14.436Z,92.40
2018-05-15T05:50:42.013Z,89.60
2018-05-15T05:53:09.564Z,80.00
2018-05-15T05:55:37.112Z,79.30
2018-05-15T05:58:04.679Z,75.20
2018-05-15T06:00:32.211Z,71.30
2018-05-15T06:03:00.499Z,67.20
2018-05-15T06:05:28.072Z,67.20
2018-05-15T06:07:55.682Z,67.30
2018-05-15T06:10:23.218Z,60.60
2018-05-15T06:12:50.779Z,60.80
2018-05-15T06:15:19.096Z,57.00
2018-05-15T06:17:46.627Z,56.90
2018-05-15T06:20:14.925Z,52.00
2018-05-15T06:22:42.454Z,52.00
2018-05-15T06:25:09.996Z,54.10
2018-05-15T06:27:37.615Z,52.70
2018-05-15T06:30:05.097Z,51.50
2018-05-15T06:32:32.641Z,54.40
2018-05-15T06:35:00.188Z,53.40
2018-05-15T06:37:27.747Z,51.70
2018-05-15T06:39:55.295Z,55.40
2018-05-15T06:42:22.826Z,57.80
2018-05-15T06:44:51.240Z,62.20
2018-05-15T06:47:18.673Z,62.20
2018-05-15T06:49:46.216Z,63.80
2018-05-15T06:52:13.735Z,64.10
2018-05-15T06:54:41.275Z,64.60
2018-05-15T06:57:08.898Z,67.20
2018-05-15T06:59:37.199Z,67.70
2018-05-15T07:02:04.731Z,67.70
2018-05-15T07:04:32.273Z,69.80
2018-05-15T07:07:00.567Z,67.80
2018-05-15T07:09:28.871Z,63.50
2018-05-15T07:11:56.404Z,63.50
2018-05-15T07:14:23.935Z,62.40
2018-05-15T07:16:51.472Z,60.90
2018-05-15T07:19:19.015Z,59.00
2018-05-15T07:21:46.547Z,57.10
2018-05-15T07:24:14.066Z,55.10
2018-05-15T07:26:41.595Z,53.70
2018-05-15T07:29:09.143Z,51.70
2018-05-15T07:31:36.681Z,53.80
2018-05-15T07:34:04.199Z,54.00
2018-05-15T07:36:31.736Z,51.80
2018-05-15T07:38:59.255Z,50.70
2018-05-15T07:41:26.790Z,50.00
2018-05-15T07:43:55.083Z,50.60
2018-05-15T07:46:22.635Z,50.60
2018-05-15T07:48:50.164Z,50.40
2018-05-15T07:51:17.716Z,50.00
2018-05-15T07:53:45.300Z,50.00
2018-05-15T07:56:12.791Z,51.00
2018-05-15T07:58:40.319Z,52.50
2018-05-15T08:01:08.610Z,51.20
2018-05-15T08:03:36.144Z,51.20
2018-05-15T08:06:05.590Z,51.30
2018-05-15T08:08:33.124Z,50.90
2018-05-15T08:11:00.666Z,50.60
2018-05-15T08:13:28.979Z,49.80
2018-05-15T08:15:56.515Z,49.80
2018-05-15T08:18:24.030Z,51.80
2018-05-15T08:20:51.572Z,50.90
2018-05-15T08:23:19.083Z,51.00
2018-05-15T08:25:46.615Z,49.40
2018-05-15T08:28:14.150Z,49.70
2018-05-15T08:30:41.686Z,50.30
2018-05-15T08:33:09.227Z,51.00
2018-05-15T08:35:36.783Z,51.40
2018-05-15T08:38:04.302Z,50.20
2018-05-15T08:40:31.824Z,51.10
2018-05-15T08:42:59.344Z,49.90
2018-05-15T08:45:27.680Z,50.90
2018-05-15T08:47:55.145Z,50.90
2018-05-15T08:50:22.708Z,50.20
2018-05-15T08:52:50.419Z,51.10
2018-05-15T08:55:17.947Z,51.60
2018-05-15T08:57:46.257Z,51.80
2018-05-15T09:00:13.851Z,51.70
2018-05-15T09:02:41.403Z,51.40
2018-05-15T09:05:09.071Z,51.20
2018-05-15T09:07:36.595Z,49.80
2018-05-15T09:10:04.140Z,51.00
2018-05-15T09:12:31.655Z,51.30
2018-05-15T09:14:59.215Z,50.60
2018-05-15T09:17:27.723Z,50.30
2018-05-15T09:19:56.035Z,47.70
2018-05-15T09:22:23.555Z,47.50
2018-05-15T09:24:51.856Z,47.90
2018-05-15T09:27:26.044Z,47.90
2018-05-15T09:29:54.349Z,48.80
2018-05-15T09:32:21.879Z,48.70
2018-05-15T09:34:50.186Z,47.40
2018-05-15T09:37:17.709Z,47.30
2018-05-15T09:39:45.998Z,48.00
2018-05-15T09:42:13.539Z,47.60
2018-05-15T09:44:41.857Z,47.50
2018-05-15T09:47:09.457Z,47.30
2018-05-15T09:49:36.990Z,46.30
2018-05-15T09:52:04.542Z,46.20
2018-05-15T09:54:32.071Z,46.20
2018-05-15T09:56:59.602Z,46.10
2018-05-15T09:59:27.126Z,46.10
2018-05-15T10:01:54.665Z,45.00
2018-05-15T10:04:22.191Z,46.00
2018-05-15T10:06:49.727Z,45.90
2018-05-15T10:09:17.257Z,45.80
2018-05-15T10:11:44.782Z,46.10
2018-05-15T10:14:12.321Z,45.10
2018-05-15T10:16:39.855Z,44.00
2018-05-15T10:19:07.414Z,45.40
2018-05-15T10:21:34.948Z,45.00
2018-05-15T10:24:02.488Z,44.40
2018-05-15T10:26:30.024Z,45.00
2018-05-15T10:28:58.398Z,45.80
2018-05-15T10:31:26.696Z,44.40
2018-05-15T10:33:54.227Z,44.90
2018-05-15T10:36:22.532Z,45.20
2018-05-15T10:38:50.046Z,45.00
2018-05-15T10:41:17.567Z,44.40
2018-05-15T10:43:45.096Z,43.40
2018-05-15T10:46:12.624Z,44.00
2018-05-15T10:48:40.141Z,44.50
2018-05-15T10:51:16.052Z,44.60
2018-05-15T10:53:44.357Z,44.80
2018-05-15T10:56:11.921Z,44.90
2018-05-15T10:58:39.451Z,44.60
2018-05-15T11:01:08.595Z,46.30
2018-05-15T11:03:36.115Z,46.40
2018-05-15T11:06:04.248Z,44.60
2018-05-15T11:08:31.765Z,44.60
2018-05-15T11:10:59.840Z,44.20
2018-05-15T11:13:27.367Z,45.30
2018-05-15T11:15:54.901Z,44.80
2018-05-15T11:21:33.471Z,45.00
2018-05-15T11:27:02.344Z,44.60
2018-05-15T11:29:29.879Z,44.50
2018-05-15T11:31:57.410Z,45.20
2018-05-15T11:34:24.944Z,44.70
2018-05-15T11:36:52.500Z,43.80
2018-05-15T11:39:20.794Z,45.00
2018-05-15T11:41:52.923Z,45.20
2018-05-15T11:44:20.419Z,45.10
2018-05-15T11:46:47.955Z,43.30
2018-05-15T11:49:16.189Z,46.80
2018-05-15T11:51:44.654Z,44.30
2018-05-15T11:54:11.387Z,44.30
2018-05-15T11:56:38.923Z,43.50
2018-05-15T11:59:06.490Z,40.80
2018-05-15T12:01:34.017Z,43.10
2018-05-15T12:04:02.356Z,42.50
2018-05-15T12:06:29.866Z,42.50
2018-05-15T12:08:57.583Z,43.10
2018-05-15T12:11:25.830Z,41.60
2018-05-15T12:13:53.367Z,41.00
2018-05-15T12:16:20.906Z,39.90
2018-05-15T12:18:49.200Z,38.80
2018-05-15T12:21:16.732Z,38.70
2018-05-15T12:23:44.255Z,38.40
2018-05-15T12:26:13.841Z,39.40
2018-05-15T12:28:58.900Z,37.50
2018-05-15T12:31:31.239Z,37.80
2018-05-15T12:33:59.553Z,36.20
2018-05-15T12:36:28.012Z,36.20
2018-05-15T12:38:56.308Z,36.90
2018-05-15T12:41:23.976Z,37.00
2018-05-15T12:43:51.408Z,40.00
2018-05-15T12:46:18.927Z,39.80
2018-05-15T12:48:46.569Z,40.40
2018-05-15T12:51:14.020Z,40.50
2018-05-15T12:53:41.553Z,39.60
2018-05-15T12:56:09.069Z,39.10
2018-05-15T12:58:36.610Z,40.70
2018-05-15T13:01:04.150Z,41.90
2018-05-15T13:03:31.706Z,42.00
2018-05-15T13:05:59.219Z,42.00
2018-05-15T13:08:27.530Z,42.70
2018-05-15T13:10:55.064Z,42.80
2018-05-15T13:13:23.419Z,42.30
2018-05-15T13:15:51.712Z,42.20
2018-05-15T13:18:20.019Z,40.90
2018-05-15T13:20:47.547Z,40.90
2018-05-15T13:23:15.861Z,40.70
2018-05-15T13:25:43.400Z,40.70
2018-05-15T13:28:10.927Z,39.80
2018-05-15T13:30:39.233Z,38.70
2018-05-15T13:33:06.759Z,38.70
2018-05-15T13:35:35.068Z,38.80
2018-05-15T13:38:02.672Z,38.80
2018-05-15T13:40:30.258Z,40.40
2018-05-15T13:42:57.721Z,40.90
2018-05-15T13:45:25.265Z,41.30
2018-05-15T13:47:52.803Z,41.60
2018-05-15T13:50:20.343Z,41.90
2018-05-15T13:52:47.864Z,40.50
2018-05-15T13:55:15.403Z,41.70
2018-05-15T13:57:42.924Z,39.90
2018-05-15T14:00:10.464Z,41.10
2018-05-15T14:02:37.991Z,41.30
2018-05-15T14:05:06.290Z,41.70
2018-05-15T14:07:33.823Z,41.70
2018-05-15T14:10:02.146Z,41.70
2018-05-15T14:12:29.768Z,41.70
2018-05-15T14:14:57.226Z,43.10
2018-05-15T14:17:24.765Z,41.60
2018-05-15T14:19:53.076Z,41.90
2018-05-15T14:22:20.603Z,41.90
2018-05-15T14:24:48.236Z,41.80
2018-05-15T14:27:15.656Z,41.80
2018-05-15T14:29:43.184Z,41.40
2018-05-15T14:32:11.471Z,41.10
2018-05-15T14:34:39.006Z,41.10
2018-05-15T14:37:06.525Z,40.60
2018-05-15T14:39:34.067Z,40.20
2018-05-15T14:42:13.574Z,39.60
2018-05-15T14:44:41.882Z,39.90
2018-05-15T14:47:09.415Z,39.90
2018-05-15T14:49:36.947Z,40.40
2018-05-15T14:52:04.480Z,40.70
2018-05-15T14:54:32.012Z,40.30
2018-05-15T14:56:59.560Z,40.60
2018-05-15T14:59:27.083Z,39.80
2018-05-15T15:01:54.626Z,39.40
2018-05-15T15:04:22.161Z,40.50
2018-05-15T15:06:49.774Z,41.90
2018-05-15T15:09:18.174Z,39.90
2018-05-15T15:11:45.728Z,40.00
2018-05-15T15:14:13.258Z,41.00
2018-05-15T15:16:40.796Z,40.40
2018-05-15T15:19:08.349Z,41.30
2018-05-15T15:21:35.887Z,41.40
2018-05-15T15:24:03.435Z,42.10
2018-05-15T15:26:30.963Z,41.80
2018-05-15T15:28:58.682Z,42.70
2018-05-15T15:31:26.288Z,42.70
2018-05-15T15:33:54.559Z,43.20
2018-05-15T15:36:22.860Z,42.00
2018-05-15T15:38:50.404Z,41.90
2018-05-15T15:41:17.936Z,42.50
2018-05-15T15:43:45.475Z,42.20
2018-05-15T15:46:13.120Z,41.70
2018-05-15T15:48:40.652Z,41.80
2018-05-15T15:51:08.189Z,41.60
2018-05-15T15:53:36.468Z,42.60
2018-05-15T15:56:04.052Z,42.60
2018-05-15T15:58:31.648Z,42.60
2018-05-15T16:00:59.196Z,42.60
2018-05-15T16:03:26.741Z,42.40
2018-05-15T16:05:54.311Z,41.00
2018-05-15T16:08:25.203Z,40.00
2018-05-15T16:10:52.776Z,40.20
2018-05-15T16:13:22.263Z,38.90
2018-05-15T16:15:53.417Z,39.60
2018-05-15T16:18:33.701Z,40.80
2018-05-15T16:21:01.247Z,41.00
2018-05-15T16:23:28.784Z,41.80
2018-05-15T16:25:56.326Z,40.90
2018-05-15T16:28:24.629Z,40.70
2018-05-15T16:30:52.199Z,40.70
2018-05-15T16:33:19.809Z,39.30
2018-05-15T16:35:53.089Z,39.40
2018-05-15T16:38:20.652Z,39.20
2018-05-15T16:40:48.264Z,39.70
2018-05-15T16:43:15.822Z,41.20
2018-05-15T16:45:43.331Z,40.30
2018-05-15T16:48:10.864Z,39.90
2018-05-15T16:50:38.413Z,40.80
2018-05-15T16:53:06.034Z,41.10
2018-05-15T16:55:34.338Z,40.20
2018-05-15T16:58:13.096Z,40.20
2018-05-15T17:00:40.627Z,40.80
2018-05-15T17:03:08.159Z,41.00
2018-05-15T17:05:35.681Z,40.60
2018-05-15T17:08:06.383Z,40.90
2018-05-15T17:10:34.087Z,40.90
2018-05-15T17:13:04.357Z,42.30
2018-05-15T17:15:31.879Z,42.30
2018-05-15T17:18:00.194Z,40.50
2018-05-15T17:20:27.743Z,40.50
2018-05-15T17:22:55.287Z,40.50
2018-05-15T17:25:23.212Z,40.20
2018-05-15T17:27:51.546Z,40.90
2018-05-15T17:30:19.111Z,40.90
2018-05-15T17:32:46.693Z,41.30
2018-05-15T17:35:14.731Z,41.70
2018-05-15T17:37:42.322Z,41.90
2018-05-15T17:40:09.854Z,41.70
2018-05-15T17:42:37.412Z,42.00
2018-05-15T17:45:04.949Z,42.00
2018-05-15T17:47:33.523Z,42.20
2018-05-15T17:50:01.847Z,42.30
2018-05-15T17:52:29.389Z,42.30
2018-05-15T17:54:56.904Z,42.40
2018-05-15T17:57:25.220Z,42.50
2018-05-15T17:59:52.798Z,42.50
2018-05-15T18:02:21.056Z,43.10
2018-05-15T18:04:48.619Z,43.10
2018-05-15T18:07:16.997Z,43.60
2018-05-15T18:09:44.514Z,43.60
2018-05-15T18:12:12.880Z,43.90
2018-05-15T18:14:40.420Z,43.80
2018-05-15T18:17:08.065Z,44.10
2018-05-15T18:19:35.673Z,44.40
2018-05-15T18:22:03.955Z,44.80
2018-05-15T18:24:32.375Z,45.10
2018-05-15T18:26:59.879Z,45.00
2018-05-15T18:29:28.322Z,45.70
2018-05-15T18:31:55.888Z,45.70
2018-05-15T18:34:23.419Z,45.90
2018-05-15T18:36:50.955Z,46.10
2018-05-15T18:39:18.494Z,46.60
2018-05-15T18:41:46.015Z,46.70
2018-05-15T18:44:13.564Z,47.40
2018-05-15T18:46:41.108Z,47.30
2018-05-15T18:49:08.639Z,47.50
2018-05-15T18:51:36.252Z,47.90
2018-05-15T18:54:03.861Z,48.70
2018-05-15T18:56:31.390Z,49.30
2018-05-15T18:58:59.846Z,49.30
2018-05-15T19:01:27.392Z,49.40
2018-05-15T19:03:54.958Z,50.50
2018-05-15T19:06:22.499Z,51.70
2018-05-15T19:08:50.783Z,52.60
2018-05-15T19:11:19.172Z,52.60
2018-05-15T19:13:46.772Z,53.00
2018-05-15T19:16:16.255Z,52.90
2018-05-15T19:18:44.707Z,54.10
2018-05-15T19:21:12.239Z,55.10
2018-05-15T19:23:39.843Z,55.80
2018-05-15T19:26:07.463Z,56.50
2018-05-15T19:28:35.922Z,56.80
2018-05-15T19:31:04.225Z,57.40
2018-05-15T19:33:39.458Z,57.90
2018-05-15T19:36:09.803Z,57.90
2018-05-15T19:38:38.253Z,57.90
2018-05-15T19:41:06.558Z,59.70
2018-05-15T19:43:34.073Z,59.20
2018-05-15T19:46:06.231Z,60.60
2018-05-15T19:48:33.799Z,60.60
2018-05-15T19:51:02.197Z,62.40
2018-05-15T19:53:30.650Z,63.50
2018-05-15T19:55:58.183Z,63.50
2018-05-15T19:58:25.949Z,62.70
2018-05-15T20:00:53.626Z,62.60
2018-05-15T20:03:21.184Z,63.80
2018-05-15T20:05:49.516Z,65.10
2018-05-15T20:08:17.090Z,65.10
2018-05-15T20:10:44.664Z,65.40
2018-05-15T20:13:12.195Z,66.10
2018-05-15T20:15:40.019Z,67.00
2018-05-15T20:18:07.551Z,68.10
2018-05-15T20:20:35.945Z,68.70
2018-05-15T20:23:03.475Z,68.70
2018-05-15T20:25:41.625Z,69.90
2018-05-15T20:28:09.231Z,70.00
2018-05-15T20:30:36.812Z,71.40
2018-05-15T20:33:04.352Z,71.90
2018-05-15T20:35:31.904Z,72.60
2018-05-15T20:37:59.443Z,72.70
2018-05-15T20:40:26.992Z,73.10
2018-05-15T20:42:54.522Z,73.60
2018-05-15T20:45:22.039Z,74.50
2018-05-15T20:47:49.581Z,73.40
2018-05-15T20:50:17.127Z,72.90
2018-05-15T20:52:44.698Z,72.30
2018-05-15T20:55:12.341Z,71.90
2018-05-15T20:57:39.961Z,71.80
2018-05-15T21:00:07.608Z,70.60
2018-05-15T21:02:35.137Z,70.30
2018-05-15T21:05:02.763Z,69.20
2018-05-15T21:07:31.128Z,68.60
2018-05-15T21:09:58.842Z,68.50
2018-05-15T21:12:26.432Z,68.90
2018-05-15T21:14:53.980Z,68.40
2018-05-15T21:17:23.411Z,68.60
2018-05-15T21:19:50.944Z,68.40
2018-05-15T21:22:18.475Z,68.50
2018-05-15T21:24:46.033Z,68.90
2018-05-15T21:27:13.576Z,68.70
2018-05-15T21:29:43.075Z,69.00
2018-05-15T21:32:11.645Z,69.00
2018-05-15T21:34:39.195Z,69.90
2018-05-15T21:37:06.768Z,69.80
2018-05-15T21:39:34.328Z,70.50
2018-05-15T21:42:01.865Z,69.90
2018-05-15T21:44:29.392Z,70.30
2018-05-15T21:46:56.920Z,70.80
2018-05-15T21:49:24.502Z,70.90
2018-05-15T21:51:52.083Z,71.90
2018-05-15T21:54:19.858Z,72.10
2018-05-15T21:56:47.407Z,72.30
2018-05-15T21:59:14.949Z,73.40
2018-05-15T22:01:42.532Z,73.40
2018-05-15T22:04:10.072Z,74.20
2018-05-15T22:06:37.645Z,74.70
2018-05-15T22:09:05.192Z,75.30
2018-05-15T22:11:44.737Z,76.00
2018-05-15T22:14:24.388Z,76.10
2018-05-15T22:17:04.029Z,76.40
2018-05-15T22:19:43.447Z,77.70
2018-05-15T22:22:14.460Z,78.50
2018-05-15T22:24:42.033Z,78.90
2018-05-15T22:27:09.670Z,79.30
2018-05-15T22:29:37.228Z,79.10
2018-05-15T22:32:04.752Z,79.30
2018-05-15T22:34:32.309Z,79.70
2018-05-15T22:36:59.868Z,79.60
2018-05-15T22:39:27.440Z,79.70
2018-05-15T22:41:55.731Z,79.50
2018-05-15T22:44:23.270Z,79.50
2018-05-15T22:46:51.735Z,80.00
2018-05-15T22:49:20.098Z,80.30
2018-05-15T22:51:47.686Z,80.30
2018-05-15T22:54:16.001Z,81.50
2018-05-15T22:56:43.524Z,81.50
2018-05-15T22:59:11.869Z,82.00
2018-05-15T23:01:39.424Z,82.00
2018-05-15T23:04:06.959Z,82.60
2018-05-15T23:06:34.578Z,82.60
2018-05-15T23:09:02.792Z,82.60
2018-05-15T23:11:30.353Z,82.50
2018-05-15T23:13:58.670Z,82.90
2018-05-15T23:16:26.357Z,82.90
2018-05-15T23:18:54.754Z,82.90
2018-05-15T23:21:22.291Z,82.90
2018-05-15T23:23:50.586Z,83.20
2018-05-15T23:26:18.161Z,83.20
2018-05-15T23:28:45.685Z,83.40
2018-05-15T23:31:14.039Z,83.90
2018-05-15T23:33:41.615Z,83.90
2018-05-15T23:36:09.933Z,84.40
2018-05-15T23:38:37.460Z,84.40
2018-05-15T23:41:05.028Z,84.50
2018-05-15T23:43:32.599Z,84.60
2018-05-15T23:46:00.132Z,85.20
2018-05-15T23:48:28.448Z,86.60
2018-05-15T23:50:58.940Z,86.60
2018-05-15T23:53:27.311Z,87.60
2018-05-15T23:55:54.853Z,87.50
2018-05-15T23:58:22.374Z,88.30
